sensor_id;sensor_type;location;lat;lon;timestamp;P1;durP1;ratioP1;P2;durP2;ratioP2
52124;SDS011;38119;52.710;6.398;2023-02-26T00:01:13;6.20;;;1.30;;
52124;SDS011;38119;52.710;6.398;2023-02-26T00:03:39;6.97;;;1.23;;
52124;SDS011;38119;52.710;6.398;2023-02-26T00:06:05;4.95;;;1.27;;
52124;SDS011;38119;52.710;6.398;2023-02-26T00:08:31;4.65;;;1.45;;
52124;SDS011;38119;52.710;6.398;2023-02-26T00:10:57;8.20;;;1.80;;
52124;SDS011;38119;52.710;6.398;2023-02-26T00:13:25;7.13;;;1.17;;
52124;SDS011;38119;52.710;6.398;2023-02-26T00:15:54;6.28;;;1.58;;
52124;SDS011;38119;52.710;6.398;2023-02-26T00:18:23;5.65;;;1.42;;
52124;SDS011;38119;52.710;6.398;2023-02-26T00:20:49;6.82;;;1.58;;
52124;SDS011;38119;52.710;6.398;2023-02-26T00:23:15;6.30;;;1.25;;
52124;SDS011;38119;52.710;6.398;2023-02-26T00:25:42;5.68;;;1.60;;
52124;SDS011;38119;52.710;6.398;2023-02-26T00:28:08;7.43;;;1.67;;
52124;SDS011;38119;52.710;6.398;2023-02-26T00:30:35;4.95;;;1.08;;
52124;SDS011;38119;52.710;6.398;2023-02-26T00:33:01;7.18;;;1.30;;
52124;SDS011;38119;52.710;6.398;2023-02-26T00:35:27;6.32;;;1.40;;
52124;SDS011;38119;52.710;6.398;2023-02-26T00:38:08;6.65;;;1.05;;
52124;SDS011;38119;52.710;6.398;2023-02-26T00:43:09;4.05;;;1.30;;
52124;SDS011;38119;52.710;6.398;2023-02-26T00:51:12;7.15;;;1.35;;
52124;SDS011;38119;52.710;6.398;2023-02-26T00:54:17;6.35;;;1.10;;
52124;SDS011;38119;52.710;6.398;2023-02-26T00:56:46;12.30;;;1.88;;
52124;SDS011;38119;52.710;6.398;2023-02-26T00:59:13;5.45;;;1.70;;
52124;SDS011;38119;52.710;6.398;2023-02-26T01:01:42;5.72;;;1.20;;
52124;SDS011;38119;52.710;6.398;2023-02-26T01:04:09;5.38;;;1.35;;
52124;SDS011;38119;52.710;6.398;2023-02-26T01:06:58;6.18;;;1.38;;
52124;SDS011;38119;52.710;6.398;2023-02-26T01:09:26;6.15;;;1.23;;
52124;SDS011;38119;52.710;6.398;2023-02-26T01:11:53;7.25;;;1.35;;
52124;SDS011;38119;52.710;6.398;2023-02-26T01:14:20;7.15;;;1.60;;
52124;SDS011;38119;52.710;6.398;2023-02-26T01:22:07;5.93;;;1.40;;
52124;SDS011;38119;52.710;6.398;2023-02-26T01:24:39;7.97;;;1.33;;
52124;SDS011;38119;52.710;6.398;2023-02-26T01:27:05;7.15;;;1.50;;
52124;SDS011;38119;52.710;6.398;2023-02-26T01:29:31;8.10;;;1.65;;
52124;SDS011;38119;52.710;6.398;2023-02-26T01:32:03;6.20;;;1.73;;
52124;SDS011;38119;52.710;6.398;2023-02-26T01:34:36;5.50;;;1.33;;
52124;SDS011;38119;52.710;6.398;2023-02-26T01:42:34;8.48;;;1.35;;
52124;SDS011;38119;52.710;6.398;2023-02-26T01:45:03;9.80;;;1.30;;
52124;SDS011;38119;52.710;6.398;2023-02-26T01:50:26;5.00;;;1.40;;
52124;SDS011;38119;52.710;6.398;2023-02-26T01:55:48;3.95;;;1.25;;
52124;SDS011;38119;52.710;6.398;2023-02-26T01:58:35;4.95;;;1.35;;
52124;SDS011;38119;52.710;6.398;2023-02-26T02:01:01;4.15;;;1.17;;
52124;SDS011;38119;52.710;6.398;2023-02-26T02:03:28;5.63;;;1.30;;
52124;SDS011;38119;52.710;6.398;2023-02-26T02:06:05;5.45;;;1.30;;
52124;SDS011;38119;52.710;6.398;2023-02-26T02:08:33;7.35;;;1.25;;
52124;SDS011;38119;52.710;6.398;2023-02-26T02:11:00;5.43;;;1.50;;
52124;SDS011;38119;52.710;6.398;2023-02-26T02:25:11;6.85;;;1.23;;
52124;SDS011;38119;52.710;6.398;2023-02-26T02:28:09;10.05;;;1.63;;
52124;SDS011;38119;52.710;6.398;2023-02-26T02:36:30;5.32;;;1.10;;
52124;SDS011;38119;52.710;6.398;2023-02-26T02:39:10;4.88;;;1.25;;
52124;SDS011;38119;52.710;6.398;2023-02-26T02:41:50;4.25;;;1.30;;
52124;SDS011;38119;52.710;6.398;2023-02-26T02:44:20;7.00;;;1.70;;
52124;SDS011;38119;52.710;6.398;2023-02-26T02:46:49;5.10;;;0.98;;
52124;SDS011;38119;52.710;6.398;2023-02-26T02:49:23;7.00;;;1.10;;
52124;SDS011;38119;52.710;6.398;2023-02-26T02:52:00;6.80;;;1.17;;
52124;SDS011;38119;52.710;6.398;2023-02-26T02:57:24;5.30;;;1.00;;
52124;SDS011;38119;52.710;6.398;2023-02-26T03:00:04;4.38;;;1.27;;
52124;SDS011;38119;52.710;6.398;2023-02-26T03:02:44;5.88;;;1.23;;
52124;SDS011;38119;52.710;6.398;2023-02-26T03:05:14;4.70;;;1.10;;
52124;SDS011;38119;52.710;6.398;2023-02-26T03:08:00;4.53;;;1.38;;
52124;SDS011;38119;52.710;6.398;2023-02-26T03:10:30;4.65;;;1.00;;
52124;SDS011;38119;52.710;6.398;2023-02-26T03:12:56;4.35;;;1.15;;
52124;SDS011;38119;52.710;6.398;2023-02-26T03:18:17;3.95;;;1.00;;
52124;SDS011;38119;52.710;6.398;2023-02-26T03:21:03;4.85;;;1.17;;
52124;SDS011;38119;52.710;6.398;2023-02-26T03:23:44;5.55;;;1.13;;
52124;SDS011;38119;52.710;6.398;2023-02-26T03:26:23;5.50;;;0.90;;
52124;SDS011;38119;52.710;6.398;2023-02-26T03:31:34;7.53;;;1.40;;
52124;SDS011;38119;52.710;6.398;2023-02-26T03:34:25;3.83;;;0.90;;
52124;SDS011;38119;52.710;6.398;2023-02-26T03:36:58;5.43;;;1.10;;
52124;SDS011;38119;52.710;6.398;2023-02-26T03:39:34;5.47;;;0.70;;
52124;SDS011;38119;52.710;6.398;2023-02-26T03:45:24;4.72;;;0.80;;
52124;SDS011;38119;52.710;6.398;2023-02-26T03:47:32;4.65;;;0.98;;
52124;SDS011;38119;52.710;6.398;2023-02-26T03:50:07;4.13;;;1.20;;
52124;SDS011;38119;52.710;6.398;2023-02-26T03:52:38;6.38;;;2.17;;
52124;SDS011;38119;52.710;6.398;2023-02-26T03:55:08;4.20;;;1.20;;
52124;SDS011;38119;52.710;6.398;2023-02-26T03:57:43;3.78;;;0.95;;
52124;SDS011;38119;52.710;6.398;2023-02-26T04:00:09;4.45;;;1.15;;
52124;SDS011;38119;52.710;6.398;2023-02-26T04:02:38;5.28;;;1.13;;
52124;SDS011;38119;52.710;6.398;2023-02-26T04:05:13;3.30;;;1.20;;
52124;SDS011;38119;52.710;6.398;2023-02-26T04:07:44;4.53;;;1.15;;
52124;SDS011;38119;52.710;6.398;2023-02-26T04:10:12;4.10;;;1.10;;
52124;SDS011;38119;52.710;6.398;2023-02-26T04:12:41;3.08;;;1.05;;
52124;SDS011;38119;52.710;6.398;2023-02-26T04:15:07;5.05;;;0.88;;
52124;SDS011;38119;52.710;6.398;2023-02-26T04:17:33;11.65;;;1.20;;
52124;SDS011;38119;52.710;6.398;2023-02-26T04:19:58;4.38;;;1.15;;
52124;SDS011;38119;52.710;6.398;2023-02-26T04:22:24;7.25;;;1.30;;
52124;SDS011;38119;52.710;6.398;2023-02-26T04:24:50;3.70;;;1.13;;
52124;SDS011;38119;52.710;6.398;2023-02-26T04:27:15;4.95;;;1.13;;
52124;SDS011;38119;52.710;6.398;2023-02-26T04:29:41;3.10;;;1.30;;
52124;SDS011;38119;52.710;6.398;2023-02-26T04:32:07;6.53;;;1.08;;
52124;SDS011;38119;52.710;6.398;2023-02-26T04:34:32;2.92;;;0.77;;
52124;SDS011;38119;52.710;6.398;2023-02-26T04:36:58;4.68;;;1.20;;
52124;SDS011;38119;52.710;6.398;2023-02-26T04:39:23;4.53;;;0.90;;
52124;SDS011;38119;52.710;6.398;2023-02-26T04:41:49;3.60;;;0.90;;
52124;SDS011;38119;52.710;6.398;2023-02-26T04:44:15;5.93;;;0.85;;
52124;SDS011;38119;52.710;6.398;2023-02-26T04:46:40;4.72;;;0.88;;
52124;SDS011;38119;52.710;6.398;2023-02-26T04:49:06;4.40;;;0.90;;
52124;SDS011;38119;52.710;6.398;2023-02-26T04:51:32;4.43;;;0.95;;
52124;SDS011;38119;52.710;6.398;2023-02-26T04:53:57;4.30;;;0.82;;
52124;SDS011;38119;52.710;6.398;2023-02-26T04:56:23;2.70;;;0.88;;
52124;SDS011;38119;52.710;6.398;2023-02-26T04:58:48;4.07;;;0.90;;
52124;SDS011;38119;52.710;6.398;2023-02-26T05:01:14;3.83;;;0.93;;
52124;SDS011;38119;52.710;6.398;2023-02-26T05:03:40;2.85;;;0.88;;
52124;SDS011;38119;52.710;6.398;2023-02-26T05:06:05;5.43;;;1.25;;
52124;SDS011;38119;52.710;6.398;2023-02-26T05:08:31;5.85;;;1.05;;
52124;SDS011;38119;52.710;6.398;2023-02-26T05:10:56;5.25;;;0.85;;
52124;SDS011;38119;52.710;6.398;2023-02-26T05:13:23;6.82;;;1.42;;
52124;SDS011;38119;52.710;6.398;2023-02-26T05:15:48;5.57;;;0.90;;
52124;SDS011;38119;52.710;6.398;2023-02-26T05:18:14;4.55;;;0.85;;
52124;SDS011;38119;52.710;6.398;2023-02-26T05:20:39;6.50;;;1.00;;
52124;SDS011;38119;52.710;6.398;2023-02-26T05:23:05;5.00;;;0.82;;
52124;SDS011;38119;52.710;6.398;2023-02-26T05:25:31;2.25;;;0.60;;
52124;SDS011;38119;52.710;6.398;2023-02-26T05:27:56;4.85;;;0.90;;
52124;SDS011;38119;52.710;6.398;2023-02-26T05:30:22;4.75;;;1.52;;
52124;SDS011;38119;52.710;6.398;2023-02-26T05:32:48;7.47;;;1.33;;
52124;SDS011;38119;52.710;6.398;2023-02-26T05:35:13;2.30;;;0.73;;
52124;SDS011;38119;52.710;6.398;2023-02-26T05:37:39;4.13;;;0.98;;
52124;SDS011;38119;52.710;6.398;2023-02-26T05:40:06;6.20;;;1.10;;
52124;SDS011;38119;52.710;6.398;2023-02-26T05:42:34;6.85;;;0.93;;
52124;SDS011;38119;52.710;6.398;2023-02-26T05:45:00;4.07;;;0.85;;
52124;SDS011;38119;52.710;6.398;2023-02-26T05:47:26;3.80;;;0.98;;
52124;SDS011;38119;52.710;6.398;2023-02-26T05:49:52;4.93;;;1.02;;
52124;SDS011;38119;52.710;6.398;2023-02-26T05:52:17;4.72;;;1.13;;
52124;SDS011;38119;52.710;6.398;2023-02-26T05:54:43;2.22;;;0.90;;
52124;SDS011;38119;52.710;6.398;2023-02-26T05:57:08;5.82;;;0.80;;
52124;SDS011;38119;52.710;6.398;2023-02-26T05:59:34;5.25;;;0.90;;
52124;SDS011;38119;52.710;6.398;2023-02-26T06:02:00;3.13;;;1.08;;
52124;SDS011;38119;52.710;6.398;2023-02-26T06:04:25;5.05;;;1.10;;
52124;SDS011;38119;52.710;6.398;2023-02-26T06:06:51;5.18;;;1.20;;
52124;SDS011;38119;52.710;6.398;2023-02-26T06:09:16;3.78;;;0.70;;
52124;SDS011;38119;52.710;6.398;2023-02-26T06:11:42;5.28;;;1.20;;
52124;SDS011;38119;52.710;6.398;2023-02-26T06:14:07;5.75;;;0.90;;
52124;SDS011;38119;52.710;6.398;2023-02-26T06:16:33;6.82;;;1.20;;
52124;SDS011;38119;52.710;6.398;2023-02-26T06:19:00;6.25;;;1.00;;
52124;SDS011;38119;52.710;6.398;2023-02-26T06:21:26;4.60;;;1.20;;
52124;SDS011;38119;52.710;6.398;2023-02-26T06:23:52;4.18;;;0.70;;
52124;SDS011;38119;52.710;6.398;2023-02-26T06:26:18;3.38;;;0.80;;
52124;SDS011;38119;52.710;6.398;2023-02-26T06:28:43;3.90;;;1.15;;
52124;SDS011;38119;52.710;6.398;2023-02-26T06:31:09;4.55;;;1.00;;
52124;SDS011;38119;52.710;6.398;2023-02-26T06:33:34;5.03;;;1.00;;
52124;SDS011;38119;52.710;6.398;2023-02-26T06:36:00;5.68;;;1.13;;
52124;SDS011;38119;52.710;6.398;2023-02-26T06:38:26;3.78;;;1.00;;
52124;SDS011;38119;52.710;6.398;2023-02-26T06:40:52;6.38;;;0.82;;
52124;SDS011;38119;52.710;6.398;2023-02-26T06:43:18;2.92;;;1.05;;
52124;SDS011;38119;52.710;6.398;2023-02-26T06:45:43;3.13;;;0.85;;
52124;SDS011;38119;52.710;6.398;2023-02-26T06:48:10;7.50;;;0.98;;
52124;SDS011;38119;52.710;6.398;2023-02-26T06:50:36;6.07;;;0.90;;
52124;SDS011;38119;52.710;6.398;2023-02-26T06:53:01;4.40;;;0.90;;
52124;SDS011;38119;52.710;6.398;2023-02-26T06:55:27;4.50;;;1.30;;
52124;SDS011;38119;52.710;6.398;2023-02-26T06:57:53;6.43;;;1.08;;
52124;SDS011;38119;52.710;6.398;2023-02-26T07:00:19;3.30;;;0.90;;
52124;SDS011;38119;52.710;6.398;2023-02-26T07:02:45;3.50;;;0.90;;
52124;SDS011;38119;52.710;6.398;2023-02-26T07:05:10;4.95;;;1.10;;
52124;SDS011;38119;52.710;6.398;2023-02-26T07:07:36;3.15;;;0.95;;
52124;SDS011;38119;52.710;6.398;2023-02-26T07:10:02;5.30;;;1.05;;
52124;SDS011;38119;52.710;6.398;2023-02-26T07:12:28;7.32;;;1.20;;
52124;SDS011;38119;52.710;6.398;2023-02-26T07:14:53;4.65;;;1.00;;
52124;SDS011;38119;52.710;6.398;2023-02-26T07:17:19;5.43;;;0.90;;
52124;SDS011;38119;52.710;6.398;2023-02-26T07:19:51;7.05;;;1.10;;
52124;SDS011;38119;52.710;6.398;2023-02-26T07:24:44;3.08;;;0.93;;
52124;SDS011;38119;52.710;6.398;2023-02-26T07:27:10;5.80;;;1.17;;
52124;SDS011;38119;52.710;6.398;2023-02-26T07:29:36;5.78;;;0.95;;
52124;SDS011;38119;52.710;6.398;2023-02-26T07:32:02;7.85;;;1.13;;
52124;SDS011;38119;52.710;6.398;2023-02-26T07:34:28;7.80;;;1.05;;
52124;SDS011;38119;52.710;6.398;2023-02-26T07:36:54;8.10;;;1.73;;
52124;SDS011;38119;52.710;6.398;2023-02-26T07:39:20;5.25;;;1.15;;
52124;SDS011;38119;52.710;6.398;2023-02-26T07:41:45;8.60;;;1.50;;
52124;SDS011;38119;52.710;6.398;2023-02-26T07:44:11;12.35;;;1.50;;
52124;SDS011;38119;52.710;6.398;2023-02-26T07:46:36;3.28;;;1.10;;
52124;SDS011;38119;52.710;6.398;2023-02-26T07:49:02;2.65;;;1.13;;
52124;SDS011;38119;52.710;6.398;2023-02-26T07:51:28;3.00;;;0.90;;
52124;SDS011;38119;52.710;6.398;2023-02-26T07:53:53;4.32;;;1.13;;
52124;SDS011;38119;52.710;6.398;2023-02-26T07:56:19;5.72;;;1.20;;
52124;SDS011;38119;52.710;6.398;2023-02-26T07:58:44;6.53;;;1.00;;
52124;SDS011;38119;52.710;6.398;2023-02-26T08:01:10;4.28;;;1.20;;
52124;SDS011;38119;52.710;6.398;2023-02-26T08:03:36;5.13;;;1.20;;
52124;SDS011;38119;52.710;6.398;2023-02-26T08:06:01;5.45;;;1.00;;
52124;SDS011;38119;52.710;6.398;2023-02-26T08:08:27;3.17;;;0.93;;
52124;SDS011;38119;52.710;6.398;2023-02-26T08:10:53;2.90;;;1.10;;
52124;SDS011;38119;52.710;6.398;2023-02-26T08:13:19;5.38;;;1.05;;
52124;SDS011;38119;52.710;6.398;2023-02-26T08:15:46;6.03;;;1.00;;
52124;SDS011;38119;52.710;6.398;2023-02-26T08:18:12;4.55;;;0.90;;
52124;SDS011;38119;52.710;6.398;2023-02-26T08:20:37;4.30;;;0.77;;
52124;SDS011;38119;52.710;6.398;2023-02-26T08:23:03;7.13;;;1.05;;
52124;SDS011;38119;52.710;6.398;2023-02-26T08:25:29;4.65;;;0.90;;
52124;SDS011;38119;52.710;6.398;2023-02-26T08:27:54;6.35;;;1.30;;
52124;SDS011;38119;52.710;6.398;2023-02-26T08:30:22;3.70;;;1.20;;
52124;SDS011;38119;52.710;6.398;2023-02-26T08:32:48;8.45;;;0.93;;
52124;SDS011;38119;52.710;6.398;2023-02-26T08:35:14;5.18;;;1.15;;
52124;SDS011;38119;52.710;6.398;2023-02-26T08:37:40;4.50;;;1.00;;
52124;SDS011;38119;52.710;6.398;2023-02-26T08:40:06;6.55;;;1.10;;
52124;SDS011;38119;52.710;6.398;2023-02-26T08:42:33;6.53;;;1.30;;
52124;SDS011;38119;52.710;6.398;2023-02-26T08:44:59;3.58;;;1.00;;
52124;SDS011;38119;52.710;6.398;2023-02-26T08:47:24;6.50;;;1.30;;
52124;SDS011;38119;52.710;6.398;2023-02-26T08:49:50;6.25;;;1.30;;
52124;SDS011;38119;52.710;6.398;2023-02-26T08:52:16;2.92;;;1.23;;
52124;SDS011;38119;52.710;6.398;2023-02-26T08:54:42;2.92;;;0.98;;
52124;SDS011;38119;52.710;6.398;2023-02-26T08:57:07;5.13;;;1.17;;
52124;SDS011;38119;52.710;6.398;2023-02-26T08:59:33;3.95;;;1.13;;
52124;SDS011;38119;52.710;6.398;2023-02-26T09:01:58;4.43;;;0.95;;
52124;SDS011;38119;52.710;6.398;2023-02-26T09:04:24;5.32;;;1.33;;
52124;SDS011;38119;52.710;6.398;2023-02-26T09:06:50;6.10;;;1.13;;
52124;SDS011;38119;52.710;6.398;2023-02-26T09:09:16;4.80;;;1.40;;
52124;SDS011;38119;52.710;6.398;2023-02-26T09:11:43;9.10;;;1.15;;
52124;SDS011;38119;52.710;6.398;2023-02-26T09:14:09;5.22;;;1.10;;
52124;SDS011;38119;52.710;6.398;2023-02-26T09:16:35;6.25;;;1.23;;
52124;SDS011;38119;52.710;6.398;2023-02-26T09:19:02;6.53;;;1.33;;
52124;SDS011;38119;52.710;6.398;2023-02-26T09:21:28;5.88;;;1.30;;
52124;SDS011;38119;52.710;6.398;2023-02-26T09:23:54;4.88;;;1.30;;
52124;SDS011;38119;52.710;6.398;2023-02-26T09:26:20;3.40;;;1.00;;
52124;SDS011;38119;52.710;6.398;2023-02-26T09:28:46;5.32;;;1.00;;
52124;SDS011;38119;52.710;6.398;2023-02-26T09:31:11;1.65;;;0.70;;
52124;SDS011;38119;52.710;6.398;2023-02-26T09:33:37;3.80;;;1.10;;
52124;SDS011;38119;52.710;6.398;2023-02-26T09:36:03;4.25;;;1.00;;
52124;SDS011;38119;52.710;6.398;2023-02-26T09:38:29;6.93;;;0.98;;
52124;SDS011;38119;52.710;6.398;2023-02-26T09:41:07;3.10;;;0.70;;
52124;SDS011;38119;52.710;6.398;2023-02-26T09:52:17;5.10;;;0.85;;
52124;SDS011;38119;52.710;6.398;2023-02-26T09:57:39;4.32;;;1.00;;
52124;SDS011;38119;52.710;6.398;2023-02-26T10:05:28;4.00;;;1.13;;
52124;SDS011;38119;52.710;6.398;2023-02-26T10:08:14;7.38;;;1.17;;
52124;SDS011;38119;52.710;6.398;2023-02-26T10:13:16;4.45;;;0.88;;
52124;SDS011;38119;52.710;6.398;2023-02-26T10:16:10;2.97;;;0.80;;
52124;SDS011;38119;52.710;6.398;2023-02-26T10:18:46;4.60;;;0.60;;
52124;SDS011;38119;52.710;6.398;2023-02-26T10:21:40;2.72;;;0.60;;
52124;SDS011;38119;52.710;6.398;2023-02-26T10:24:21;3.70;;;0.63;;
52124;SDS011;38119;52.710;6.398;2023-02-26T10:26:56;2.90;;;0.85;;
52124;SDS011;38119;52.710;6.398;2023-02-26T10:34:56;2.63;;;0.43;;
52124;SDS011;38119;52.710;6.398;2023-02-26T10:43:16;2.85;;;0.80;;
52124;SDS011;38119;52.710;6.398;2023-02-26T10:45:46;1.85;;;0.68;;
52124;SDS011;38119;52.710;6.398;2023-02-26T10:51:33;5.22;;;1.70;;
52124;SDS011;38119;52.710;6.398;2023-02-26T10:56:41;2.53;;;0.70;;
52124;SDS011;38119;52.710;6.398;2023-02-26T10:59:06;4.95;;;1.60;;
52124;SDS011;38119;52.710;6.398;2023-02-26T11:01:32;1.63;;;0.70;;
52124;SDS011;38119;52.710;6.398;2023-02-26T11:04:02;1.20;;;0.60;;
52124;SDS011;38119;52.710;6.398;2023-02-26T11:06:43;5.63;;;1.10;;
52124;SDS011;38119;52.710;6.398;2023-02-26T11:09:16;5.72;;;1.20;;
52124;SDS011;38119;52.710;6.398;2023-02-26T11:14:12;1.83;;;0.95;;
52124;SDS011;38119;52.710;6.398;2023-02-26T11:16:40;1.35;;;0.73;;
52124;SDS011;38119;52.710;6.398;2023-02-26T11:19:13;0.70;;;0.57;;
52124;SDS011;38119;52.710;6.398;2023-02-26T11:21:40;3.65;;;1.15;;
52124;SDS011;38119;52.710;6.398;2023-02-26T11:26:56;3.40;;;1.02;;
52124;SDS011;38119;52.710;6.398;2023-02-26T11:29:23;3.30;;;1.50;;
52124;SDS011;38119;52.710;6.398;2023-02-26T11:31:53;1.42;;;1.02;;
52124;SDS011;38119;52.710;6.398;2023-02-26T11:34:22;3.20;;;0.63;;
52124;SDS011;38119;52.710;6.398;2023-02-26T11:36:50;1.60;;;0.90;;
52124;SDS011;38119;52.710;6.398;2023-02-26T11:39:20;2.85;;;0.85;;
52124;SDS011;38119;52.710;6.398;2023-02-26T11:41:49;2.60;;;0.80;;
52124;SDS011;38119;52.710;6.398;2023-02-26T11:44:24;3.72;;;0.70;;
52124;SDS011;38119;52.710;6.398;2023-02-26T11:46:56;1.20;;;0.60;;
52124;SDS011;38119;52.710;6.398;2023-02-26T11:49:23;2.22;;;0.75;;
52124;SDS011;38119;52.710;6.398;2023-02-26T11:52:05;2.25;;;0.93;;
52124;SDS011;38119;52.710;6.398;2023-02-26T11:54:50;6.07;;;1.40;;
52124;SDS011;38119;52.710;6.398;2023-02-26T11:57:25;5.13;;;2.35;;
52124;SDS011;38119;52.710;6.398;2023-02-26T11:59:55;8.50;;;2.50;;
52124;SDS011;38119;52.710;6.398;2023-02-26T12:02:24;5.97;;;1.73;;
52124;SDS011;38119;52.710;6.398;2023-02-26T12:04:55;5.45;;;1.70;;
52124;SDS011;38119;52.710;6.398;2023-02-26T12:07:24;2.63;;;0.88;;
52124;SDS011;38119;52.710;6.398;2023-02-26T12:09:51;3.15;;;0.98;;
52124;SDS011;38119;52.710;6.398;2023-02-26T12:37:00;2.03;;;0.70;;
52124;SDS011;38119;52.710;6.398;2023-02-26T12:39:34;3.92;;;1.20;;
52124;SDS011;38119;52.710;6.398;2023-02-26T12:45:26;1.65;;;0.70;;
52124;SDS011;38119;52.710;6.398;2023-02-26T12:57:21;4.68;;;0.73;;
52124;SDS011;38119;52.710;6.398;2023-02-26T13:02:29;1.67;;;0.60;;
52124;SDS011;38119;52.710;6.398;2023-02-26T13:10:48;2.22;;;0.70;;
52124;SDS011;38119;52.710;6.398;2023-02-26T13:21:24;1.77;;;0.57;;
52124;SDS011;38119;52.710;6.398;2023-02-26T13:24:09;2.45;;;0.75;;
52124;SDS011;38119;52.710;6.398;2023-02-26T13:26:40;2.03;;;0.90;;
52124;SDS011;38119;52.710;6.398;2023-02-26T13:31:49;1.40;;;0.68;;
52124;SDS011;38119;52.710;6.398;2023-02-26T13:34:40;2.03;;;0.77;;
52124;SDS011;38119;52.710;6.398;2023-02-26T13:37:09;3.67;;;0.70;;
52124;SDS011;38119;52.710;6.398;2023-02-26T13:39:54;3.42;;;0.68;;
52124;SDS011;38119;52.710;6.398;2023-02-26T13:48:37;3.92;;;0.90;;
52124;SDS011;38119;52.710;6.398;2023-02-26T13:54:16;3.58;;;0.80;;
52124;SDS011;38119;52.710;6.398;2023-02-26T14:08:18;2.75;;;0.70;;
52124;SDS011;38119;52.710;6.398;2023-02-26T14:11:04;2.72;;;0.73;;
52124;SDS011;38119;52.710;6.398;2023-02-26T14:16:47;2.50;;;0.60;;
52124;SDS011;38119;52.710;6.398;2023-02-26T14:21:47;2.03;;;0.50;;
52124;SDS011;38119;52.710;6.398;2023-02-26T14:24:20;2.00;;;0.43;;
52124;SDS011;38119;52.710;6.398;2023-02-26T14:26:49;2.00;;;0.77;;
52124;SDS011;38119;52.710;6.398;2023-02-26T14:32:04;1.73;;;0.60;;
52124;SDS011;38119;52.710;6.398;2023-02-26T14:34:50;3.55;;;0.60;;
52124;SDS011;38119;52.710;6.398;2023-02-26T14:37:20;4.77;;;0.90;;
52124;SDS011;38119;52.710;6.398;2023-02-26T14:42:55;2.33;;;0.65;;
52124;SDS011;38119;52.710;6.398;2023-02-26T14:48:06;2.40;;;0.90;;
52124;SDS011;38119;52.710;6.398;2023-02-26T14:53:18;5.78;;;0.95;;
52124;SDS011;38119;52.710;6.398;2023-02-26T14:56:15;5.35;;;1.27;;
52124;SDS011;38119;52.710;6.398;2023-02-26T15:01:47;2.83;;;1.10;;
52124;SDS011;38119;52.710;6.398;2023-02-26T15:07:20;3.70;;;0.75;;
52124;SDS011;38119;52.710;6.398;2023-02-26T15:13:54;2.45;;;1.00;;
52124;SDS011;38119;52.710;6.398;2023-02-26T15:21:25;8.35;;;1.33;;
52124;SDS011;38119;52.710;6.398;2023-02-26T15:24:11;4.50;;;1.23;;
52124;SDS011;38119;52.710;6.398;2023-02-26T15:26:44;5.25;;;1.20;;
52124;SDS011;38119;52.710;6.398;2023-02-26T15:29:16;6.03;;;1.00;;
52124;SDS011;38119;52.710;6.398;2023-02-26T15:31:56;3.35;;;1.10;;
52124;SDS011;38119;52.710;6.398;2023-02-26T15:34:25;6.28;;;1.27;;
52124;SDS011;38119;52.710;6.398;2023-02-26T15:36:51;4.68;;;0.95;;
52124;SDS011;38119;52.710;6.398;2023-02-26T15:39:18;3.95;;;1.10;;
52124;SDS011;38119;52.710;6.398;2023-02-26T15:41:47;5.20;;;1.20;;
52124;SDS011;38119;52.710;6.398;2023-02-26T15:44:25;4.15;;;1.02;;
52124;SDS011;38119;52.710;6.398;2023-02-26T15:46:55;4.80;;;0.80;;
52124;SDS011;38119;52.710;6.398;2023-02-26T15:49:26;5.85;;;1.02;;
52124;SDS011;38119;52.710;6.398;2023-02-26T15:52:00;3.17;;;1.00;;
52124;SDS011;38119;52.710;6.398;2023-02-26T15:54:44;4.50;;;0.90;;
52124;SDS011;38119;52.710;6.398;2023-02-26T15:57:12;2.03;;;0.90;;
52124;SDS011;38119;52.710;6.398;2023-02-26T15:59:44;5.05;;;1.15;;
52124;SDS011;38119;52.710;6.398;2023-02-26T16:02:17;4.93;;;1.00;;
52124;SDS011;38119;52.710;6.398;2023-02-26T16:04:45;5.50;;;1.00;;
52124;SDS011;38119;52.710;6.398;2023-02-26T16:07:11;4.75;;;0.90;;
52124;SDS011;38119;52.710;6.398;2023-02-26T16:09:45;7.53;;;1.33;;
52124;SDS011;38119;52.710;6.398;2023-02-26T16:12:17;6.70;;;1.23;;
52124;SDS011;38119;52.710;6.398;2023-02-26T16:14:57;3.33;;;1.15;;
52124;SDS011;38119;52.710;6.398;2023-02-26T16:17:26;4.57;;;1.00;;
52124;SDS011;38119;52.710;6.398;2023-02-26T16:19:55;4.55;;;1.10;;
52124;SDS011;38119;52.710;6.398;2023-02-26T16:22:31;4.28;;;1.10;;
52124;SDS011;38119;52.710;6.398;2023-02-26T16:25:00;8.35;;;3.22;;
52124;SDS011;38119;52.710;6.398;2023-02-26T16:27:27;7.15;;;1.83;;
52124;SDS011;38119;52.710;6.398;2023-02-26T16:29:56;4.68;;;0.90;;
52124;SDS011;38119;52.710;6.398;2023-02-26T16:32:24;4.97;;;1.13;;
52124;SDS011;38119;52.710;6.398;2023-02-26T16:34:54;3.97;;;1.20;;
52124;SDS011;38119;52.710;6.398;2023-02-26T16:40:17;8.18;;;1.58;;
52124;SDS011;38119;52.710;6.398;2023-02-26T16:45:27;2.80;;;1.45;;
52124;SDS011;38119;52.710;6.398;2023-02-26T16:48:23;12.33;;;2.10;;
52124;SDS011;38119;52.710;6.398;2023-02-26T16:51:02;7.97;;;1.67;;
52124;SDS011;38119;52.710;6.398;2023-02-26T16:53:33;7.40;;;1.50;;
52124;SDS011;38119;52.710;6.398;2023-02-26T16:56:08;5.40;;;1.70;;
52124;SDS011;38119;52.710;6.398;2023-02-26T17:01:39;8.07;;;1.90;;
52124;SDS011;38119;52.710;6.398;2023-02-26T17:04:15;3.45;;;1.38;;
52124;SDS011;38119;52.710;6.398;2023-02-26T17:06:43;7.43;;;1.55;;
52124;SDS011;38119;52.710;6.398;2023-02-26T17:12:50;8.57;;;1.70;;
52124;SDS011;38119;52.710;6.398;2023-02-26T17:14:55;7.57;;;1.55;;
52124;SDS011;38119;52.710;6.398;2023-02-26T17:17:22;5.68;;;1.40;;
52124;SDS011;38119;52.710;6.398;2023-02-26T17:19:49;3.03;;;1.10;;
52124;SDS011;38119;52.710;6.398;2023-02-26T17:22:16;5.70;;;1.33;;
52124;SDS011;38119;52.710;6.398;2023-02-26T17:24:48;6.43;;;1.42;;
52124;SDS011;38119;52.710;6.398;2023-02-26T17:27:27;5.78;;;1.42;;
52124;SDS011;38119;52.710;6.398;2023-02-26T17:29:58;4.63;;;1.05;;
52124;SDS011;38119;52.710;6.398;2023-02-26T17:32:25;6.25;;;1.67;;
52124;SDS011;38119;52.710;6.398;2023-02-26T17:34:52;3.20;;;1.02;;
52124;SDS011;38119;52.710;6.398;2023-02-26T17:37:18;5.00;;;1.20;;
52124;SDS011;38119;52.710;6.398;2023-02-26T17:39:44;7.13;;;2.40;;
52124;SDS011;38119;52.710;6.398;2023-02-26T17:42:11;5.60;;;1.88;;
52124;SDS011;38119;52.710;6.398;2023-02-26T17:44:39;5.20;;;1.67;;
52124;SDS011;38119;52.710;6.398;2023-02-26T17:47:05;4.60;;;1.38;;
52124;SDS011;38119;52.710;6.398;2023-02-26T17:49:33;9.07;;;2.40;;
52124;SDS011;38119;52.710;6.398;2023-02-26T17:51:59;8.57;;;4.57;;
52124;SDS011;38119;52.710;6.398;2023-02-26T17:54:24;21.98;;;12.80;;
52124;SDS011;38119;52.710;6.398;2023-02-26T17:56:50;19.00;;;13.30;;
52124;SDS011;38119;52.710;6.398;2023-02-26T17:59:16;11.80;;;7.88;;
52124;SDS011;38119;52.710;6.398;2023-02-26T18:01:41;15.25;;;3.92;;
52124;SDS011;38119;52.710;6.398;2023-02-26T18:04:07;10.77;;;5.50;;
52124;SDS011;38119;52.710;6.398;2023-02-26T18:06:34;9.50;;;6.88;;
52124;SDS011;38119;52.710;6.398;2023-02-26T18:09:01;12.02;;;5.30;;
52124;SDS011;38119;52.710;6.398;2023-02-26T18:11:31;13.55;;;6.20;;
52124;SDS011;38119;52.710;6.398;2023-02-26T18:13:57;11.00;;;5.15;;
52124;SDS011;38119;52.710;6.398;2023-02-26T18:16:33;18.67;;;11.90;;
52124;SDS011;38119;52.710;6.398;2023-02-26T18:19:02;19.13;;;9.50;;
52124;SDS011;38119;52.710;6.398;2023-02-26T18:21:29;16.40;;;9.38;;
52124;SDS011;38119;52.710;6.398;2023-02-26T18:23:55;11.15;;;7.03;;
52124;SDS011;38119;52.710;6.398;2023-02-26T18:26:22;13.98;;;5.22;;
52124;SDS011;38119;52.710;6.398;2023-02-26T18:28:51;6.68;;;3.38;;
52124;SDS011;38119;52.710;6.398;2023-02-26T18:31:17;9.00;;;2.97;;
52124;SDS011;38119;52.710;6.398;2023-02-26T18:33:43;7.88;;;2.42;;
52124;SDS011;38119;52.710;6.398;2023-02-26T18:36:24;4.80;;;2.47;;
52124;SDS011;38119;52.710;6.398;2023-02-26T18:38:58;7.82;;;2.20;;
52124;SDS011;38119;52.710;6.398;2023-02-26T18:41:26;5.97;;;1.98;;